createdAt,value
2023-05-21T00:02:11.793Z,98.90
2023-05-21T00:04:41.550Z,98.90
2023-05-21T00:07:09.417Z,99.10
2023-05-21T00:09:38.297Z,99.10
2023-05-21T00:12:06.833Z,99.50
2023-05-21T00:14:34.996Z,99.70
2023-05-21T00:17:02.844Z,99.60
2023-05-21T00:19:32.645Z,99.70
2023-05-21T00:22:03.680Z,99.60
2023-05-21T00:24:31.492Z,99.90
2023-05-21T00:26:59.297Z,99.80
2023-05-21T00:29:27.649Z,99.90
2023-05-21T00:31:56.063Z,99.90
2023-05-21T00:34:23.961Z,99.90
2023-05-21T00:36:53.332Z,99.90
2023-05-21T00:39:22.510Z,99.90
2023-05-21T00:41:51.131Z,99.90
2023-05-21T00:44:19.667Z,99.90
2023-05-21T00:46:48.844Z,99.90
2023-05-21T00:49:17.045Z,99.90
2023-05-21T00:51:45.941Z,99.90
2023-05-21T00:54:13.999Z,99.90
2023-05-21T00:56:43.548Z,99.90
2023-05-21T00:59:11.578Z,99.90
2023-05-21T01:01:39.412Z,99.90
2023-05-21T01:04:07.188Z,99.90
2023-05-21T01:06:35.352Z,99.90
2023-05-21T01:09:06.303Z,99.90
2023-05-21T01:11:39.729Z,99.90
2023-05-21T01:14:11.136Z,99.90
2023-05-21T01:16:40.987Z,99.90
2023-05-21T01:19:11.566Z,99.90
2023-05-21T01:21:45.799Z,99.90
2023-05-21T01:24:15.320Z,99.90
2023-05-21T01:26:44.225Z,99.90
2023-05-21T01:29:13.083Z,99.90
2023-05-21T01:31:52.753Z,99.90
2023-05-21T01:34:24.816Z,99.90
2023-05-21T01:36:58.393Z,99.90
2023-05-21T01:39:32.124Z,99.90
2023-05-21T01:42:01.423Z,99.90
2023-05-21T01:44:29.720Z,99.90
2023-05-21T01:46:59.425Z,99.90
2023-05-21T01:49:27.513Z,99.90
2023-05-21T01:51:55.443Z,99.90
2023-05-21T01:54:23.962Z,99.90
2023-05-21T01:56:53.053Z,99.90
2023-05-21T01:59:20.870Z,99.90
2023-05-21T02:01:48.644Z,99.90
2023-05-21T02:04:16.567Z,99.90
2023-05-21T02:06:44.366Z,99.90
2023-05-21T02:09:12.100Z,99.90
2023-05-21T02:11:39.971Z,99.90
2023-05-21T02:14:10.446Z,99.90
2023-05-21T02:16:38.381Z,99.90
2023-05-21T02:19:06.683Z,99.90
2023-05-21T02:21:34.579Z,99.90
2023-05-21T02:24:02.307Z,99.90
2023-05-21T02:26:30.081Z,99.90
2023-05-21T02:28:57.982Z,99.90
2023-05-21T02:31:27.161Z,99.90
2023-05-21T02:33:54.977Z,99.90
2023-05-21T02:36:25.134Z,99.90
2023-05-21T02:38:53.129Z,99.90
2023-05-21T02:41:21.069Z,99.90
2023-05-21T02:43:48.841Z,99.90
2023-05-21T02:46:16.645Z,99.90
2023-05-21T02:48:45.864Z,99.90
2023-05-21T02:51:13.617Z,99.90
2023-05-21T02:53:41.501Z,99.90
2023-05-21T02:56:09.385Z,99.90
2023-05-21T02:58:37.149Z,99.90
2023-05-21T03:01:04.990Z,99.90
2023-05-21T03:03:32.957Z,99.90
2023-05-21T03:06:02.174Z,99.90
2023-05-21T03:08:30.032Z,99.90
2023-05-21T03:10:57.824Z,99.90
2023-05-21T03:13:25.893Z,99.90
2023-05-21T03:15:56.292Z,99.90
2023-05-21T03:18:24.132Z,99.90
2023-05-21T03:20:51.948Z,99.90
2023-05-21T03:23:21.046Z,99.90
2023-05-21T03:25:48.977Z,99.90
2023-05-21T03:28:17.578Z,99.90
2023-05-21T03:30:46.678Z,99.90
2023-05-21T03:33:15.548Z,99.90
2023-05-21T03:35:43.433Z,99.90
2023-05-21T03:38:11.251Z,99.90
2023-05-21T03:40:40.449Z,99.90
2023-05-21T03:43:08.281Z,99.90
2023-05-21T03:45:36.781Z,99.90
2023-05-21T03:48:05.678Z,99.90
2023-05-21T03:50:33.495Z,99.90
2023-05-21T03:53:01.943Z,99.90
2023-05-21T03:55:30.313Z,99.90
2023-05-21T03:57:59.452Z,99.90
2023-05-21T04:00:27.210Z,99.90
2023-05-21T04:02:55.228Z,99.90
2023-05-21T04:05:23.022Z,99.90
2023-05-21T04:07:50.780Z,99.90
2023-05-21T04:10:18.852Z,99.90
2023-05-21T04:12:49.066Z,99.90
2023-05-21T04:15:18.532Z,99.90
2023-05-21T04:17:46.861Z,99.90
2023-05-21T04:20:16.885Z,99.90
2023-05-21T04:22:44.746Z,99.90
2023-05-21T04:25:12.636Z,99.90
2023-05-21T04:27:40.564Z,99.90
2023-05-21T04:30:09.620Z,99.90
2023-05-21T04:32:39.262Z,99.90
2023-05-21T04:35:07.791Z,99.90
2023-05-21T04:37:36.270Z,99.90
2023-05-21T04:40:04.861Z,99.90
2023-05-21T04:42:33.075Z,99.90
2023-05-21T04:45:00.848Z,99.90
2023-05-21T04:47:30.285Z,99.90
2023-05-21T04:49:59.652Z,99.90
2023-05-21T04:52:27.740Z,99.90
2023-05-21T04:54:55.512Z,99.90
2023-05-21T04:57:24.466Z,99.90
2023-05-21T04:59:52.644Z,99.90
2023-05-21T05:02:20.531Z,99.90
2023-05-21T05:04:48.267Z,99.90
2023-05-21T05:07:17.343Z,99.90
2023-05-21T05:09:45.108Z,99.90
2023-05-21T05:12:12.840Z,99.90
2023-05-21T05:14:40.687Z,99.90
2023-05-21T05:17:09.916Z,99.90
2023-05-21T05:19:37.690Z,99.90
2023-05-21T05:22:05.901Z,99.90
2023-05-21T05:24:35.058Z,99.90
2023-05-21T05:27:02.901Z,99.90
2023-05-21T05:29:30.765Z,99.90
2023-05-21T05:31:58.585Z,99.90
2023-05-21T05:34:26.460Z,99.90
2023-05-21T05:36:54.224Z,99.90
2023-05-21T05:39:22.020Z,99.90
2023-05-21T05:41:51.152Z,99.90
2023-05-21T05:44:18.949Z,99.90
2023-05-21T05:46:46.886Z,99.50
2023-05-21T05:49:14.895Z,98.60
2023-05-21T05:51:42.954Z,98.70
2023-05-21T05:54:10.722Z,98.60
2023-05-21T05:56:38.478Z,98.40
2023-05-21T05:59:07.591Z,98.30
2023-05-21T06:01:35.442Z,98.50
2023-05-21T06:04:03.193Z,98.40
2023-05-21T06:06:31.564Z,97.90
2023-05-21T06:08:59.291Z,97.50
2023-05-21T06:11:27.104Z,96.40
2023-05-21T06:13:54.894Z,95.60
2023-05-21T06:16:24.114Z,95.30
2023-05-21T06:18:51.921Z,94.30
2023-05-21T06:21:19.937Z,93.30
2023-05-21T06:23:47.842Z,92.20
2023-05-21T06:26:15.726Z,89.70
2023-05-21T06:28:43.491Z,84.60
2023-05-21T06:31:11.637Z,80.50
2023-05-21T06:33:41.104Z,76.20
2023-05-21T06:36:09.191Z,71.20
2023-05-21T06:38:36.981Z,65.60
2023-05-21T06:41:04.907Z,60.50
2023-05-21T06:43:32.765Z,59.20
2023-05-21T06:46:01.442Z,58.50
2023-05-21T06:48:29.329Z,56.20
2023-05-21T06:50:58.473Z,54.90
2023-05-21T06:53:26.282Z,53.60
2023-05-21T06:55:54.531Z,52.60
2023-05-21T06:58:22.463Z,52.20
2023-05-21T07:00:50.450Z,52.70
2023-05-21T07:03:18.480Z,53.80
2023-05-21T07:05:46.345Z,55.00
2023-05-21T07:08:15.494Z,55.00
2023-05-21T07:10:43.425Z,55.50
2023-05-21T07:13:11.508Z,55.00
2023-05-21T07:15:39.648Z,55.10
2023-05-21T07:18:08.018Z,55.10
2023-05-21T07:20:35.853Z,55.20
2023-05-21T07:23:03.772Z,54.20
2023-05-21T07:25:33.056Z,53.20
2023-05-21T07:28:00.850Z,53.20
2023-05-21T07:30:28.656Z,53.80
2023-05-21T07:32:56.564Z,53.50
2023-05-21T07:35:24.470Z,54.00
2023-05-21T07:37:52.412Z,53.80
2023-05-21T07:40:20.376Z,53.40
2023-05-21T07:42:49.557Z,53.40
2023-05-21T07:45:17.516Z,53.80
2023-05-21T07:47:47.245Z,53.30
2023-05-21T07:50:15.392Z,52.90
2023-05-21T07:52:43.309Z,52.60
2023-05-21T07:55:11.890Z,52.00
2023-05-21T07:57:39.653Z,51.90
2023-05-21T08:00:10.894Z,51.30
2023-05-21T08:02:40.624Z,50.90
2023-05-21T08:05:11.614Z,50.70
2023-05-21T08:07:42.867Z,50.10
2023-05-21T08:10:12.436Z,49.70
2023-05-21T08:12:42.163Z,48.50
2023-05-21T08:15:14.374Z,48.20
2023-05-21T08:17:43.672Z,47.10
2023-05-21T08:20:15.355Z,46.30
2023-05-21T08:22:45.182Z,46.30
2023-05-21T08:25:15.008Z,45.90
2023-05-21T08:27:45.197Z,47.00
2023-05-21T08:30:16.032Z,46.60
2023-05-21T08:32:46.033Z,46.40
2023-05-21T08:35:15.651Z,46.50
2023-05-21T08:37:44.676Z,47.50
2023-05-21T08:40:14.686Z,48.40
2023-05-21T08:42:49.941Z,47.80
2023-05-21T08:45:23.787Z,47.60
2023-05-21T08:47:58.287Z,46.90
2023-05-21T08:50:29.772Z,47.30
2023-05-21T08:52:59.731Z,46.80
2023-05-21T08:55:30.162Z,46.10
2023-05-21T08:58:00.070Z,46.20
2023-05-21T09:00:31.305Z,46.90
2023-05-21T09:03:04.348Z,46.20
2023-05-21T09:05:32.434Z,45.40
2023-05-21T09:08:05.313Z,43.70
2023-05-21T09:10:36.943Z,41.60
2023-05-21T09:13:04.960Z,40.80
2023-05-21T09:15:34.435Z,39.80
2023-05-21T09:18:02.539Z,39.30
2023-05-21T09:20:30.713Z,39.30
2023-05-21T09:23:03.375Z,38.70
2023-05-21T09:25:32.025Z,38.30
2023-05-21T09:28:00.238Z,38.80
2023-05-21T09:30:31.320Z,39.00
2023-05-21T09:33:03.286Z,39.40
2023-05-21T09:35:31.344Z,38.90
2023-05-21T09:37:59.170Z,39.30
2023-05-21T09:40:26.941Z,40.00
2023-05-21T09:42:56.046Z,40.00
2023-05-21T09:45:26.378Z,40.80
2023-05-21T09:47:55.199Z,41.60
2023-05-21T09:50:27.781Z,42.10
2023-05-21T09:52:56.438Z,41.50
2023-05-21T09:55:25.636Z,42.00
2023-05-21T09:57:54.389Z,42.20
2023-05-21T10:00:23.365Z,42.70
2023-05-21T10:02:55.358Z,43.60
2023-05-21T10:05:28.054Z,44.30
2023-05-21T10:08:01.846Z,44.30
2023-05-21T10:10:30.526Z,44.20
2023-05-21T10:13:02.187Z,43.70
2023-05-21T10:15:36.123Z,43.70
2023-05-21T10:18:04.940Z,44.00
2023-05-21T10:20:34.633Z,43.50
2023-05-21T10:23:03.360Z,44.40
2023-05-21T10:25:32.780Z,44.50
2023-05-21T10:28:00.669Z,44.50
2023-05-21T10:30:28.709Z,44.50
2023-05-21T10:32:57.647Z,44.60
2023-05-21T10:35:26.503Z,43.30
2023-05-21T10:37:56.988Z,43.20
2023-05-21T10:40:24.737Z,42.80
2023-05-21T10:43:34.228Z,42.70
2023-05-21T10:46:26.246Z,43.00
2023-05-21T10:49:06.988Z,43.50
2023-05-21T10:51:44.867Z,42.80
2023-05-21T10:54:49.786Z,42.60
2023-05-21T10:57:32.359Z,42.30
2023-05-21T11:00:00.795Z,42.50
2023-05-21T11:02:29.947Z,42.90
2023-05-21T11:05:01.090Z,42.90
2023-05-21T11:07:53.842Z,42.80
2023-05-21T11:10:40.477Z,42.30
2023-05-21T11:13:09.408Z,42.10
2023-05-21T11:16:08.305Z,41.90
2023-05-21T11:18:58.032Z,41.30
2023-05-21T11:21:30.454Z,40.90
2023-05-21T11:24:02.618Z,40.60
2023-05-21T11:27:05.715Z,40.50
2023-05-21T11:29:41.466Z,40.80
2023-05-21T11:32:10.985Z,41.60
2023-05-21T11:34:41.076Z,41.50
2023-05-21T11:37:27.501Z,41.10
2023-05-21T11:39:56.395Z,40.80
2023-05-21T11:42:36.143Z,40.50
2023-05-21T11:45:04.996Z,39.60
2023-05-21T11:47:33.367Z,39.40
2023-05-21T11:50:02.272Z,39.60
2023-05-21T11:52:30.916Z,39.20
2023-05-21T11:54:59.778Z,39.30
2023-05-21T11:57:30.757Z,38.90
2023-05-21T12:00:01.444Z,38.80
2023-05-21T12:02:33.318Z,38.30
2023-05-21T12:05:01.426Z,37.90
2023-05-21T12:07:31.240Z,37.00
2023-05-21T12:09:59.577Z,37.30
2023-05-21T12:12:35.526Z,37.00
2023-05-21T12:15:13.353Z,37.60
2023-05-21T12:17:41.902Z,38.30
2023-05-21T12:20:10.827Z,39.10
2023-05-21T12:22:43.597Z,38.60
2023-05-21T12:25:12.287Z,36.30
2023-05-21T12:27:41.936Z,35.70
2023-05-21T12:30:11.924Z,35.70
2023-05-21T12:32:44.266Z,34.70
2023-05-21T12:35:22.699Z,34.60
2023-05-21T12:37:51.745Z,35.20
2023-05-21T12:40:20.650Z,35.10
2023-05-21T12:42:48.697Z,35.40
2023-05-21T12:45:19.151Z,36.40
2023-05-21T12:47:50.453Z,37.10
2023-05-21T12:50:22.038Z,37.10
2023-05-21T12:52:49.900Z,37.90
2023-05-21T12:55:18.446Z,38.20
2023-05-21T12:57:46.478Z,38.50
2023-05-21T13:00:14.566Z,38.50
2023-05-21T13:02:45.707Z,38.20
2023-05-21T13:05:18.034Z,37.70
2023-05-21T13:07:47.456Z,38.00
2023-05-21T13:10:17.160Z,38.20
2023-05-21T13:12:45.770Z,38.70
2023-05-21T13:15:14.016Z,38.10
2023-05-21T13:17:43.283Z,38.10
2023-05-21T13:20:13.035Z,37.80
2023-05-21T13:22:43.239Z,36.50
2023-05-21T13:25:12.027Z,36.80
2023-05-21T13:27:40.395Z,36.40
2023-05-21T13:30:11.303Z,36.00
2023-05-21T13:32:39.853Z,35.90
2023-05-21T13:35:11.157Z,36.20
2023-05-21T13:37:40.115Z,36.30
2023-05-21T13:40:10.938Z,37.50
2023-05-21T13:42:39.331Z,37.20
2023-05-21T13:45:08.620Z,37.70
2023-05-21T13:47:39.749Z,37.00
2023-05-21T13:50:10.790Z,36.50
2023-05-21T13:52:39.230Z,35.90
2023-05-21T13:55:07.838Z,36.10
2023-05-21T13:57:35.732Z,34.80
2023-05-21T14:00:04.020Z,35.60
2023-05-21T14:02:31.818Z,35.80
2023-05-21T14:04:59.622Z,35.50
2023-05-21T14:07:28.795Z,35.10
2023-05-21T14:09:56.698Z,34.50
2023-05-21T14:12:24.542Z,34.10
2023-05-21T14:14:52.512Z,34.50
2023-05-21T14:17:20.454Z,35.00
2023-05-21T14:19:48.864Z,35.60
2023-05-21T14:22:16.781Z,35.60
2023-05-21T14:24:46.801Z,36.40
2023-05-21T14:27:15.469Z,36.20
2023-05-21T14:29:43.400Z,36.40
2023-05-21T14:32:11.305Z,37.60
2023-05-21T14:34:40.290Z,38.40
2023-05-21T14:37:08.211Z,38.30
2023-05-21T14:39:36.008Z,37.60
2023-05-21T14:42:06.206Z,37.50
2023-05-21T14:44:33.959Z,37.00
2023-05-21T14:47:01.710Z,37.10
2023-05-21T14:49:29.560Z,37.40
2023-05-21T14:51:57.889Z,37.60
2023-05-21T14:54:25.660Z,38.00
2023-05-21T14:56:54.179Z,38.30
2023-05-21T14:59:23.274Z,38.70
2023-05-21T15:01:51.384Z,38.90
2023-05-21T15:04:19.224Z,38.50
2023-05-21T15:06:49.009Z,38.40
2023-05-21T15:09:16.774Z,39.40
2023-05-21T15:11:45.950Z,39.70
2023-05-21T15:14:13.861Z,39.30
2023-05-21T15:16:43.091Z,39.50
2023-05-21T15:19:11.840Z,39.90
2023-05-21T15:21:39.730Z,39.00
2023-05-21T15:24:07.700Z,37.90
2023-05-21T15:26:35.441Z,37.90
2023-05-21T15:29:03.843Z,38.60
2023-05-21T15:31:32.311Z,38.70
2023-05-21T15:34:01.518Z,38.90
2023-05-21T15:36:29.440Z,38.50
2023-05-21T15:38:57.322Z,38.50
2023-05-21T15:41:25.092Z,38.90
2023-05-21T15:43:52.879Z,38.70
2023-05-21T15:46:21.019Z,38.90
2023-05-21T15:48:48.792Z,39.10
2023-05-21T15:51:18.379Z,39.10
2023-05-21T15:53:46.221Z,39.50
2023-05-21T15:56:14.024Z,40.30
2023-05-21T15:58:41.843Z,41.10
2023-05-21T16:01:09.723Z,41.10
2023-05-21T16:03:37.701Z,39.70
2023-05-21T16:06:07.210Z,39.70
2023-05-21T16:08:36.333Z,39.40
2023-05-21T16:11:04.208Z,38.60
2023-05-21T16:13:31.961Z,39.10
2023-05-21T16:15:59.739Z,39.00
2023-05-21T16:18:27.469Z,39.10
2023-05-21T16:20:56.628Z,39.10
2023-05-21T16:23:24.436Z,39.50
2023-05-21T16:25:53.623Z,39.80
2023-05-21T16:28:24.159Z,39.40
2023-05-21T16:30:52.386Z,39.50
2023-05-21T16:33:20.236Z,39.00
2023-05-21T16:35:48.049Z,38.60
2023-05-21T16:38:16.165Z,38.50
2023-05-21T16:40:45.037Z,38.80
2023-05-21T16:43:14.555Z,39.10
2023-05-21T16:45:43.899Z,39.70
2023-05-21T16:48:12.949Z,39.70
2023-05-21T16:50:41.317Z,39.60
2023-05-21T16:53:09.884Z,39.90
2023-05-21T16:55:39.050Z,40.10
2023-05-21T16:58:09.339Z,40.20
2023-05-21T17:00:38.648Z,39.50
2023-05-21T17:03:06.708Z,39.30
2023-05-21T17:05:34.953Z,38.80
2023-05-21T17:08:03.022Z,38.70
2023-05-21T17:10:33.706Z,38.30
2023-05-21T17:13:17.690Z,38.70
2023-05-21T17:15:55.725Z,39.10
2023-05-21T17:18:24.873Z,39.50
2023-05-21T17:20:56.468Z,39.80
2023-05-21T17:23:25.986Z,39.90
2023-05-21T17:25:55.112Z,40.10
2023-05-21T17:28:25.912Z,40.00
2023-05-21T17:30:57.667Z,40.00
2023-05-21T17:33:26.883Z,40.20
2023-05-21T17:35:57.366Z,40.70
2023-05-21T17:38:27.153Z,41.20
2023-05-21T17:40:56.834Z,41.60
2023-05-21T17:43:27.933Z,42.00
2023-05-21T17:45:58.967Z,42.10
2023-05-21T17:48:28.277Z,42.10
2023-05-21T17:50:57.831Z,42.20
2023-05-21T17:53:27.081Z,42.50
2023-05-21T17:55:56.489Z,42.80
2023-05-21T17:58:25.640Z,43.10
2023-05-21T18:00:55.125Z,43.60
2023-05-21T18:03:26.455Z,43.60
2023-05-21T18:05:55.752Z,43.70
2023-05-21T18:08:25.115Z,45.00
2023-05-21T18:10:54.224Z,45.90
2023-05-21T18:13:23.636Z,46.50
2023-05-21T18:15:53.348Z,46.80
2023-05-21T18:18:22.641Z,47.20
2023-05-21T18:20:55.539Z,47.80
2023-05-21T18:23:23.417Z,48.20
2023-05-21T18:25:51.448Z,48.10
2023-05-21T18:30:09.232Z,48.10
2023-05-21T18:32:38.529Z,47.40
2023-05-21T18:35:07.789Z,47.40
2023-05-21T18:37:37.246Z,47.00
2023-05-21T18:40:07.279Z,46.60
2023-05-21T18:42:35.774Z,46.90
2023-05-21T18:46:43.971Z,46.70
2023-05-21T18:49:11.865Z,49.20
2023-05-21T18:51:39.726Z,50.60
2023-05-21T18:54:08.401Z,51.40
2023-05-21T18:56:36.242Z,51.90
2023-05-21T19:00:11.428Z,51.70
2023-05-21T19:02:39.420Z,51.30
2023-05-21T19:05:08.631Z,51.30
2023-05-21T19:07:37.273Z,51.00
2023-05-21T19:10:05.752Z,51.00
2023-05-21T19:12:35.707Z,51.90
2023-05-21T19:15:03.714Z,53.70
2023-05-21T19:17:33.387Z,54.60
2023-05-21T19:20:01.459Z,54.80
2023-05-21T19:22:29.740Z,55.00
2023-05-21T19:24:57.601Z,54.90
2023-05-21T19:27:25.700Z,54.70
2023-05-21T19:29:55.798Z,55.10
2023-05-21T19:32:24.682Z,55.70
2023-05-21T19:34:54.155Z,56.40
2023-05-21T19:37:22.264Z,56.90
2023-05-21T19:39:50.411Z,57.10
2023-05-21T19:42:21.255Z,57.20
2023-05-21T19:44:49.148Z,57.60
2023-05-21T19:47:17.163Z,58.00
2023-05-21T19:49:45.696Z,58.40
2023-05-21T19:52:14.927Z,58.60
2023-05-21T19:54:42.928Z,58.80
2023-05-21T19:57:13.118Z,59.10
2023-05-21T19:59:41.172Z,59.10
2023-05-21T20:02:15.008Z,59.20
2023-05-21T20:04:42.949Z,59.50
2023-05-21T20:07:10.991Z,59.50
2023-05-21T20:09:41.164Z,59.60
2023-05-21T20:12:09.780Z,59.80
2023-05-21T20:14:37.573Z,59.90
2023-05-21T20:17:06.877Z,60.50
2023-05-21T20:19:35.761Z,60.50
2023-05-21T20:22:04.492Z,60.70
2023-05-21T20:24:33.329Z,60.50
2023-05-21T20:27:02.660Z,60.50
2023-05-21T20:29:30.866Z,60.20
2023-05-21T20:31:58.818Z,60.20
2023-05-21T20:34:27.303Z,60.80
2023-05-21T20:36:57.873Z,61.10
2023-05-21T20:39:27.309Z,61.30
2023-05-21T20:41:56.129Z,61.30
2023-05-21T20:44:28.850Z,61.30
2023-05-21T20:46:57.024Z,61.10
2023-05-21T20:49:25.835Z,61.00
2023-05-21T20:51:54.067Z,61.60
2023-05-21T20:54:23.116Z,62.00
2023-05-21T20:56:54.714Z,62.30
2023-05-21T20:59:22.679Z,62.80
2023-05-21T21:01:52.481Z,62.70
2023-05-21T21:04:20.775Z,62.80
2023-05-21T21:06:50.381Z,62.50
2023-05-21T21:09:18.254Z,63.50
2023-05-21T21:11:46.267Z,64.10
2023-05-21T21:14:14.849Z,64.20
2023-05-21T21:16:42.815Z,64.70
2023-05-21T21:19:12.611Z,64.00
2023-05-21T21:21:40.672Z,64.20
2023-05-21T21:24:08.980Z,64.10
2023-05-21T21:26:36.787Z,64.00
2023-05-21T21:29:04.734Z,64.10
2023-05-21T21:31:33.057Z,63.80
2023-05-21T21:34:01.403Z,64.20
2023-05-21T21:36:31.228Z,64.00
2023-05-21T21:38:59.127Z,64.00
2023-05-21T21:41:27.339Z,64.40
2023-05-21T21:43:56.557Z,65.00
2023-05-21T21:46:26.390Z,65.00
2023-05-21T21:48:54.276Z,65.10
2023-05-21T21:51:23.576Z,64.50
2023-05-21T21:53:52.781Z,64.20
2023-05-21T21:56:20.747Z,63.50
2023-05-21T21:58:48.561Z,64.30
2023-05-21T22:01:16.462Z,64.60
2023-05-21T22:03:44.354Z,65.10
2023-05-21T22:06:12.208Z,65.30
2023-05-21T22:08:40.001Z,65.80
2023-05-21T22:11:09.307Z,65.50
2023-05-21T22:13:37.621Z,66.80
2023-05-21T22:16:07.174Z,69.40
2023-05-21T22:18:41.536Z,69.60
2023-05-21T22:21:10.592Z,72.80
2023-05-21T22:23:39.006Z,72.60
2023-05-21T22:26:07.064Z,73.10
2023-05-21T22:28:36.377Z,73.40
2023-05-21T22:31:04.425Z,73.10
2023-05-21T22:33:32.543Z,72.80
2023-05-21T22:36:00.700Z,72.30
2023-05-21T22:38:28.741Z,71.90
2023-05-21T22:40:57.102Z,71.50
2023-05-21T22:43:27.069Z,71.70
2023-05-21T22:45:56.150Z,72.50
2023-05-21T22:48:23.967Z,71.90
2023-05-21T22:50:53.316Z,71.10
2023-05-21T22:53:21.487Z,70.60
2023-05-21T22:55:49.299Z,70.10
2023-05-21T22:58:17.201Z,70.70
2023-05-21T23:00:45.020Z,70.90
2023-05-21T23:03:14.248Z,71.40
2023-05-21T23:05:42.091Z,71.50
2023-05-21T23:08:09.926Z,72.00
2023-05-21T23:10:37.979Z,73.10
2023-05-21T23:13:05.896Z,75.10
2023-05-21T23:15:33.656Z,76.90
2023-05-21T23:18:03.756Z,79.30
2023-05-21T23:20:33.637Z,79.00
2023-05-21T23:23:01.383Z,81.00
2023-05-21T23:25:29.131Z,82.40
2023-05-21T23:27:56.972Z,84.10
2023-05-21T23:30:24.709Z,84.30
2023-05-21T23:32:52.577Z,83.90
2023-05-21T23:35:20.905Z,84.20
2023-05-21T23:37:50.045Z,83.90
2023-05-21T23:40:17.973Z,83.60
2023-05-21T23:42:45.955Z,85.20
2023-05-21T23:45:13.699Z,84.30
2023-05-21T23:47:41.671Z,84.70
2023-05-21T23:50:10.445Z,85.20
2023-05-21T23:52:38.282Z,86.30
2023-05-21T23:55:08.635Z,87.70
2023-05-21T23:57:36.483Z,88.50
